Time;durP1;ratioP1;P1;durP2;ratioP2;P2;SDS_P1;SDS_P2;PMS_P1;PMS_P2;Temp;Humidity;BMP_temperature;BMP_pressure;BME280_temperature;BME280_humidity;BME280_pressure;Samples;Min_cycle;Max_cycle;Signal;HPM_P1;HPM_P2
2022/03/31 00:00:46;;;;;;;27.77;19.37;;;;;;;9.32;100.00;94387.22;5079538;28;20209;-81
2022/03/31 00:03:17;;;;;;;27.03;19.17;;;;;;;9.31;100.00;94384.81;5059244;28;20349;-81
2022/03/31 00:05:45;;;;;;;30.40;17.10;;;;;;;9.36;100.00;94384.78;5067090;28;20309;-81
2022/03/31 00:08:14;;;;;;;27.13;15.33;;;;;;;9.39;100.00;94381.56;5057369;28;20201;-81
2022/03/31 00:10:43;;;;;;;25.27;16.13;;;;;;;9.42;100.00;94387.25;5059579;28;20201;-81
2022/03/31 00:13:15;;;;;;;19.50;13.43;;;;;;;9.40;100.00;94384.00;5078358;28;20236;-81
2022/03/31 00:15:42;;;;;;;20.17;13.67;;;;;;;9.35;100.00;94380.50;5071672;28;20325;-81
2022/03/31 00:18:11;;;;;;;22.17;14.13;;;;;;;9.39;100.00;94377.00;5062323;28;20227;-81
2022/03/31 00:20:38;;;;;;;20.60;13.67;;;;;;;9.42;100.00;94370.25;5055078;28;20233;-81
2022/03/31 00:23:06;;;;;;;22.30;11.90;;;;;;;9.44;100.00;94370.81;5053317;28;20209;-81
2022/03/31 00:25:34;;;;;;;17.50;8.50;;;;;;;9.40;100.00;94367.84;5053331;28;20312;-81
2022/03/31 00:28:03;;;;;;;13.90;8.13;;;;;;;9.36;100.00;94365.94;5061270;28;20235;-81
2022/03/31 00:30:33;;;;;;;11.13;7.87;;;;;;;9.35;100.00;94358.97;5071508;28;20201;-81
2022/03/31 00:33:01;;;;;;;14.53;8.10;;;;;;;9.38;100.00;94358.41;5071842;28;20209;-82
2022/03/31 00:35:28;;;;;;;13.50;7.13;;;;;;;9.36;100.00;94349.78;5070769;28;20202;-81
2022/03/31 00:37:56;;;;;;;11.93;7.40;;;;;;;9.29;100.00;94349.25;5061245;28;20231;-81
2022/03/31 00:40:23;;;;;;;13.97;7.27;;;;;;;9.25;100.00;94340.13;5075686;28;20209;-81
2022/03/31 00:42:53;;;;;;;11.23;7.13;;;;;;;9.21;100.00;94339.03;5068363;28;20200;-82
2022/03/31 00:45:23;;;;;;;12.93;6.53;;;;;;;9.25;100.00;94340.94;5068333;28;20279;-81
2022/03/31 00:47:52;;;;;;;10.50;6.77;;;;;;;9.29;100.00;94333.09;5070754;28;20281;-81
2022/03/31 00:50:22;;;;;;;12.00;5.93;;;;;;;9.31;100.00;94323.69;5072295;28;20212;-81
2022/03/31 00:52:49;;;;;;;10.53;5.83;;;;;;;9.29;100.00;94322.31;5066663;28;20200;-81
2022/03/31 00:55:19;;;;;;;8.83;5.80;;;;;;;9.29;100.00;94320.44;5053903;28;20205;-81
2022/03/31 01:00:29;;;;;;;9.70;5.40;;;;;;;9.26;100.00;94310.22;5101981;27;20554;-82
2022/03/31 01:02:56;;;;;;;8.00;5.37;;;;;;;9.26;100.00;94306.72;5089732;28;20221;-81
2022/03/31 01:05:23;;;;;;;7.67;5.57;;;;;;;9.27;100.00;94301.06;5076287;28;20203;-81
2022/03/31 01:07:50;;;;;;;10.00;5.87;;;;;;;9.25;100.00;94297.84;5101006;28;20200;-81
2022/03/31 01:10:17;;;;;;;9.77;5.13;;;;;;;9.26;100.00;94294.06;5083830;28;20232;-82
2022/03/31 01:12:46;;;;;;;11.37;5.37;;;;;;;9.28;100.00;94288.41;5077378;28;20197;-82
2022/03/31 01:15:17;;;;;;;9.40;5.60;;;;;;;9.27;100.00;94281.44;5077537;28;20201;-82
2022/03/31 01:17:48;;;;;;;8.87;5.17;;;;;;;9.32;100.00;94284.09;5098123;28;20262;-81
2022/03/31 01:20:17;;;;;;;8.17;4.80;;;;;;;9.31;100.00;94275.22;5100314;28;20236;-81
2022/03/31 01:22:45;;;;;;;7.03;5.00;;;;;;;9.33;100.00;94274.94;5078720;28;20212;-82
2022/03/31 01:25:15;;;;;;;11.60;5.07;;;;;;;9.32;100.00;94262.56;5063461;28;20209;-82
2022/03/31 01:27:44;;;;;;;5.67;4.67;;;;;;;9.22;100.00;94267.94;5070951;28;20529;-82
2022/03/31 01:30:13;;;;;;;7.53;4.87;;;;;;;9.16;100.00;94258.28;5058773;28;20259;-82
2022/03/31 01:32:40;;;;;;;8.53;4.73;;;;;;;9.13;100.00;94258.81;5055479;28;20210;-82
2022/03/31 01:35:08;;;;;;;11.20;5.40;;;;;;;9.10;100.00;94266.34;5078670;28;20205;-82
2022/03/31 01:37:35;;;;;;;7.97;4.73;;;;;;;9.10;100.00;94260.97;5060521;28;20205;-82
2022/03/31 01:40:02;;;;;;;7.57;4.50;;;;;;;9.10;100.00;94260.97;5064513;28;20294;-82
2022/03/31 01:42:31;;;;;;;9.20;4.67;;;;;;;9.05;100.00;94266.38;5064199;28;20193;-82
2022/03/31 01:44:59;;;;;;;8.43;4.60;;;;;;;9.05;100.00;94263.66;5059737;28;20210;-82
2022/03/31 01:47:26;;;;;;;8.27;5.00;;;;;;;9.07;100.00;94263.41;5060306;28;20205;-82
2022/03/31 01:49:54;;;;;;;7.70;4.97;;;;;;;9.10;100.00;94254.81;5079071;28;20227;-82
2022/03/31 01:52:22;;;;;;;7.27;4.70;;;;;;;9.11;100.00;94251.81;5080218;28;20209;-82
2022/03/31 01:54:49;;;;;;;9.20;4.80;;;;;;;9.15;100.00;94248.59;5076912;28;20208;-82
2022/03/31 01:57:16;;;;;;;8.73;4.50;;;;;;;9.11;100.00;94245.63;5073492;28;20212;-81
2022/03/31 01:59:45;;;;;;;7.57;4.70;;;;;;;9.11;100.00;94246.44;5050200;28;20293;-81
2022/03/31 02:05:08;;;;;;;7.30;4.30;;;;;;;9.06;100.00;94233.00;5139272;27;20574;-83
2022/03/31 02:07:36;;;;;;;6.13;3.93;;;;;;;9.02;100.00;94239.97;5099368;28;20216;-84
2022/03/31 02:10:03;;;;;;;8.77;4.00;;;;;;;8.98;100.00;94235.44;5096410;28;20203;-83
2022/03/31 02:12:31;;;;;;;7.33;4.70;;;;;;;8.99;100.00;94227.09;5097944;28;20196;-83
2022/03/31 02:14:58;;;;;;;7.83;4.60;;;;;;;8.97;100.00;94220.34;5098836;28;20207;-84
2022/03/31 02:17:25;;;;;;;10.83;4.67;;;;;;;8.98;100.00;94230.03;5118345;28;20200;-84
2022/03/31 02:19:52;;;;;;;7.97;4.90;;;;;;;8.98;100.00;94225.47;5114250;28;20295;-84
2022/03/31 02:24:08;;;;;;;6.93;4.60;;;;;;;9.05;100.00;94219.78;5121142;27;20574;-83
2022/03/31 02:26:35;;;;;;;6.17;4.53;;;;;;;9.03;100.00;94214.69;5101206;28;20211;-83
2022/03/31 02:29:03;;;;;;;8.60;4.63;;;;;;;8.99;100.00;94205.56;5131913;27;20207;-83
2022/03/31 02:31:30;;;;;;;6.97;4.57;;;;;;;8.99;100.00;94205.56;5093679;28;20200;-83
2022/03/31 02:33:58;;;;;;;6.37;4.27;;;;;;;9.03;100.00;94214.69;5139465;27;20203;-83
2022/03/31 02:36:26;;;;;;;8.10;5.10;;;;;;;9.03;100.00;94211.19;5098874;28;20212;-83
2022/03/31 02:38:53;;;;;;;9.27;5.17;;;;;;;9.02;100.00;94215.75;5101616;28;20200;-84
2022/03/31 02:41:21;;;;;;;10.77;5.23;;;;;;;8.99;100.00;94213.63;5119732;27;20202;-84
2022/03/31 02:43:49;;;;;;;9.80;4.93;;;;;;;8.95;100.00;94215.22;5104154;28;20319;-83
2022/03/31 02:46:16;;;;;;;9.57;5.10;;;;;;;9.00;100.00;94209.84;5100837;28;20212;-83
2022/03/31 02:48:43;;;;;;;8.40;4.83;;;;;;;9.00;100.00;94215.25;5103220;28;20192;-84
2022/03/31 02:51:10;;;;;;;6.23;4.27;;;;;;;8.95;100.00;94209.03;5095615;28;20215;-83
2022/03/31 02:56:23;;;;;;;8.23;5.10;;;;;;;8.90;100.00;94206.38;5097725;28;20200;-84
2022/03/31 02:58:50;;;;;;;7.50;5.10;;;;;;;8.88;100.00;94201.25;5122366;27;20212;-84
2022/03/31 03:01:17;;;;;;;8.43;5.43;;;;;;;8.73;100.00;94194.03;5093093;27;20228;-84
2022/03/31 03:03:44;;;;;;;9.30;5.23;;;;;;;8.65;100.00;94196.44;5132303;27;20218;-83
2022/03/31 03:06:13;;;;;;;9.70;5.40;;;;;;;8.64;100.00;94184.06;5094901;28;20212;-83
2022/03/31 03:08:40;;;;;;;10.57;5.40;;;;;;;8.64;100.00;94179.50;5092363;28;20212;-84
2022/03/31 03:11:08;;;;;;;9.93;5.67;;;;;;;8.66;100.00;94179.22;5120458;28;20191;-83
2022/03/31 03:13:36;;;;;;;8.77;5.70;;;;;;;8.63;100.00;94169.00;5107754;27;20231;-84
2022/03/31 03:16:08;;;;;;;8.00;5.80;;;;;;;8.65;100.00;94178.44;5101186;28;20235;-84
2022/03/31 03:18:35;;;;;;;10.50;6.60;;;;;;;8.63;100.00;94174.38;5113577;28;20303;-84
2022/03/31 03:21:04;;;;;;;11.70;6.60;;;;;;;8.70;100.00;94180.28;5117082;27;20222;-83
2022/03/31 03:23:31;;;;;;;11.60;6.07;;;;;;;8.72;100.00;94167.38;5107086;28;20240;-83
2022/03/31 03:25:58;;;;;;;12.53;6.23;;;;;;;8.76;100.00;94162.28;5113276;28;20213;-84
2022/03/31 03:28:26;;;;;;;8.87;6.10;;;;;;;8.78;100.00;94165.47;5115064;27;20211;-83
2022/03/31 03:33:43;;;;;;;13.70;6.57;;;;;;;8.75;100.00;94166.84;5086477;27;20572;-81
2022/03/31 03:36:12;;;;;;;7.37;6.17;;;;;;;8.76;100.00;94163.09;5053602;28;20201;-82
2022/03/31 03:38:39;;;;;;;9.73;6.00;;;;;;;8.75;100.00;94161.47;5054820;28;20207;-82
2022/03/31 03:41:06;;;;;;;13.43;6.50;;;;;;;8.76;100.00;94165.78;5060483;28;20202;-82
2022/03/31 03:43:33;;;;;;;12.20;6.47;;;;;;;8.73;100.00;94160.94;5050524;28;20225;-82
2022/03/31 03:46:01;;;;;;;9.07;6.20;;;;;;;8.72;100.00;94168.19;5090972;28;20266;-82
2022/03/31 03:48:28;;;;;;;11.50;6.43;;;;;;;8.66;100.00;94158.53;5061138;28;20296;-82
2022/03/31 03:50:56;;;;;;;11.20;6.07;;;;;;;8.64;100.00;94163.38;5058749;28;20205;-82
2022/03/31 03:53:23;;;;;;;10.07;6.30;;;;;;;8.63;100.00;94164.44;5063195;28;20220;-82
2022/03/31 03:55:51;;;;;;;11.73;7.50;;;;;;;8.64;100.00;94160.66;5060996;28;20208;-82
2022/03/31 03:58:18;;;;;;;12.53;7.57;;;;;;;8.64;100.00;94159.88;5051588;28;20214;-82
2022/03/31 04:00:45;;;;;;;12.93;8.37;;;;;;;8.60;100.00;94158.78;5089587;28;20197;-81
2022/03/31 04:03:12;;;;;;;15.40;8.97;;;;;;;8.63;100.00;94166.31;5053111;28;20210;-82
2022/03/31 04:05:39;;;;;;;10.43;6.67;;;;;;;8.57;100.00;94162.84;5054412;28;20297;-82
2022/03/31 04:08:08;;;;;;;12.17;6.93;;;;;;;8.56;100.00;94152.34;5057528;28;20198;-82
2022/03/31 04:10:35;;;;;;;14.53;6.80;;;;;;;8.54;100.00;94155.28;5054628;28;20202;-83
2022/03/31 04:13:03;;;;;;;13.73;7.13;;;;;;;8.53;100.00;94152.88;5047498;28;20227;-82
2022/03/31 04:15:30;;;;;;;11.80;8.40;;;;;;;8.50;100.00;94153.44;5063366;28;20209;-82
2022/03/31 04:17:57;;;;;;;13.87;7.57;;;;;;;8.51;100.00;94155.03;5057556;28;20209;-82
2022/03/31 04:20:24;;;;;;;11.37;7.10;;;;;;;8.56;100.00;94158.53;5053852;28;20576;-82
2022/03/31 04:22:51;;;;;;;13.37;8.03;;;;;;;8.59;100.00;94154.50;5060658;28;20207;-82
2022/03/31 04:25:21;;;;;;;13.03;7.77;;;;;;;8.61;100.00;94150.44;5052275;28;20194;-82
2022/03/31 04:27:48;;;;;;;13.57;8.17;;;;;;;8.61;100.00;94152.31;5059654;28;20210;-82
2022/03/31 04:30:19;;;;;;;12.77;7.00;;;;;;;8.61;100.00;94147.75;5052662;28;20208;-82
2022/03/31 04:32:46;;;;;;;12.80;7.03;;;;;;;8.64;100.00;94149.91;5054092;28;20229;-82
2022/03/31 04:35:13;;;;;;;11.83;7.90;;;;;;;8.64;100.00;94149.09;5055966;28;20199;-82
2022/03/31 04:37:40;;;;;;;14.83;7.47;;;;;;;8.59;100.00;94146.44;5051527;28;20206;-82
2022/03/31 04:40:10;;;;;;;12.23;8.13;;;;;;;8.56;100.00;94149.66;5047377;28;20206;-81
2022/03/31 04:42:38;;;;;;;11.97;7.63;;;;;;;8.48;100.00;94150.19;5058709;28;20271;-82
2022/03/31 04:45:07;;;;;;;13.83;7.37;;;;;;;8.45;100.00;94150.72;5037928;28;20198;-82
2022/03/31 04:47:34;;;;;;;18.20;7.50;;;;;;;8.47;100.00;94153.97;5045422;28;20213;-82
2022/03/31 04:50:01;;;;;;;13.37;7.27;;;;;;;8.50;100.00;94142.69;5054819;28;20246;-82
2022/03/31 04:52:28;;;;;;;11.17;6.83;;;;;;;8.52;100.00;94151.25;5040415;28;20218;-82
2022/03/31 04:54:55;;;;;;;9.23;6.67;;;;;;;8.42;100.00;94157.44;5041074;28;20293;-82
2022/03/31 04:57:23;;;;;;;12.80;7.73;;;;;;;8.40;100.00;94158.81;5040179;28;20201;-82
2022/03/31 04:59:51;;;;;;;11.97;7.40;;;;;;;8.35;100.00;94155.03;5040958;28;20267;-82
2022/03/31 05:02:19;;;;;;;10.23;7.03;;;;;;;8.31;100.00;94151.28;5039754;28;20206;-82
2022/03/31 05:04:46;;;;;;;13.80;7.30;;;;;;;8.34;100.00;94156.09;5041657;28;20234;-82
2022/03/31 05:07:13;;;;;;;11.47;7.30;;;;;;;8.33;100.00;94157.22;5040057;28;20202;-82
2022/03/31 05:09:41;;;;;;;13.47;7.63;;;;;;;8.26;100.00;94164.69;5044856;28;20203;-82
2022/03/31 05:12:10;;;;;;;12.87;7.83;;;;;;;8.26;100.00;94153.13;5043007;28;20345;-82
2022/03/31 05:14:37;;;;;;;11.10;7.27;;;;;;;8.22;100.00;94152.88;5043020;28;20206;-82
2022/03/31 05:17:06;;;;;;;10.13;6.83;;;;;;;8.17;100.00;94163.59;5038874;28;20257;-82
2022/03/31 05:19:34;;;;;;;12.07;7.07;;;;;;;8.14;100.00;94158.78;5036605;28;20202;-82
2022/03/31 05:22:01;;;;;;;16.43;7.47;;;;;;;8.05;100.00;94157.69;5043568;28;20270;-83
2022/03/31 05:24:28;;;;;;;12.73;7.77;;;;;;;8.01;100.00;94161.16;5038998;28;20231;-83
2022/03/31 05:26:55;;;;;;;13.20;8.17;;;;;;;8.02;100.00;94155.53;5034620;28;20213;-83
2022/03/31 05:29:23;;;;;;;15.43;7.90;;;;;;;8.05;100.00;94157.69;5037212;28;20240;-84
2022/03/31 05:31:51;;;;;;;13.33;7.93;;;;;;;8.08;100.00;94148.31;5034274;28;20239;-84
2022/03/31 05:34:21;;;;;;;17.73;8.13;;;;;;;8.10;100.00;94138.88;5041484;28;20208;-84
2022/03/31 05:36:49;;;;;;;10.93;7.33;;;;;;;8.16;100.00;94145.09;5034463;28;20218;-84
2022/03/31 05:39:16;;;;;;;12.80;7.40;;;;;;;8.11;100.00;94151.25;5034747;28;20205;-84
2022/03/31 05:41:43;;;;;;;12.53;7.90;;;;;;;8.11;100.00;94145.88;5037877;28;20209;-83
2022/03/31 05:44:09;;;;;;;11.43;7.83;;;;;;;8.12;100.00;94146.69;5041505;28;20194;-83
2022/03/31 05:46:37;;;;;;;11.83;7.77;;;;;;;8.12;100.00;94146.69;5058184;28;20245;-83
2022/03/31 05:49:04;;;;;;;13.87;7.70;;;;;;;8.15;100.00;94141.59;5047977;28;20217;-82
2022/03/31 05:51:32;;;;;;;12.87;7.37;;;;;;;8.17;100.00;94144.78;5044532;28;20222;-84
2022/03/31 05:54:01;;;;;;;11.43;7.30;;;;;;;8.10;100.00;94148.81;5045333;28;20394;-83
2022/03/31 05:56:28;;;;;;;14.23;7.60;;;;;;;8.09;100.00;94148.00;5048033;28;20236;-82
2022/03/31 05:58:55;;;;;;;12.13;7.03;;;;;;;8.07;100.00;94157.44;5044197;28;20213;-82
2022/03/31 06:01:22;;;;;;;12.87;7.37;;;;;;;8.04;100.00;94158.78;5044024;28;20258;-83
2022/03/31 06:03:49;;;;;;;14.97;7.67;;;;;;;8.09;100.00;94156.06;5046673;28;20206;-82
2022/03/31 06:06:16;;;;;;;11.37;7.27;;;;;;;8.15;100.00;94156.91;5044224;28;20289;-82
2022/03/31 06:08:45;;;;;;;11.67;7.37;;;;;;;8.20;100.00;94146.94;5042878;28;20210;-82
2022/03/31 06:11:12;;;;;;;10.20;7.00;;;;;;;8.16;100.00;94139.69;5046353;28;20201;-82
2022/03/31 06:13:39;;;;;;;10.60;6.87;;;;;;;8.17;100.00;94144.78;5034469;28;20227;-82
2022/03/31 06:16:06;;;;;;;13.63;7.20;;;;;;;8.21;100.00;94156.63;5040797;28;20214;-82
2022/03/31 06:18:33;;;;;;;13.80;7.80;;;;;;;8.24;100.00;94150.72;5038193;28;20210;-82
2022/03/31 06:21:01;;;;;;;10.57;6.77;;;;;;;8.26;100.00;94150.44;5040927;28;20234;-83
2022/03/31 06:23:28;;;;;;;12.53;7.53;;;;;;;8.23;100.00;94149.09;5046369;28;20245;-82
2022/03/31 06:25:57;;;;;;;13.30;7.00;;;;;;;8.28;100.00;94151.78;5030208;28;20207;-82
2022/03/31 06:28:25;;;;;;;13.83;7.83;;;;;;;8.30;100.00;94144.25;5038528;28;20209;-82
2022/03/31 06:30:53;;;;;;;11.50;7.80;;;;;;;8.45;100.00;94150.72;5044294;28;20218;-81
2022/03/31 06:33:20;;;;;;;10.67;7.50;;;;;;;8.41;100.00;94145.09;5029082;28;20249;-82
2022/03/31 06:35:49;;;;;;;9.50;7.03;;;;;;;8.40;100.00;94148.88;5039752;28;20268;-82
2022/03/31 06:38:16;;;;;;;10.47;6.90;;;;;;;8.33;100.00;94149.16;5048186;28;20267;-82
2022/03/31 06:41:06;;;;;;;10.47;6.07;;;;;;;8.26;100.00;94145.88;5037673;28;20210;-82
2022/03/31 06:43:32;;;;;;;12.33;6.93;;;;;;;8.32;100.00;94144.84;5057775;28;20202;-83
2022/03/31 06:45:59;;;;;;;11.60;7.23;;;;;;;8.33;100.00;94143.78;5029615;28;20210;-82
2022/03/31 06:48:26;;;;;;;11.90;6.67;;;;;;;8.31;100.00;94140.53;5033492;28;20218;-82
2022/03/31 06:50:53;;;;;;;13.67;7.10;;;;;;;8.30;100.00;94143.47;5033595;28;20208;-82
2022/03/31 06:53:21;;;;;;;12.30;6.50;;;;;;;8.26;100.00;94137.81;5029156;28;20226;-83
2022/03/31 06:55:48;;;;;;;12.17;6.40;;;;;;;8.32;100.00;94142.16;5046783;28;20202;-83
2022/03/31 06:58:15;;;;;;;12.80;6.80;;;;;;;8.35;100.00;94141.59;5043330;28;20202;-82
2022/03/31 07:00:44;;;;;;;13.40;7.53;;;;;;;8.40;100.00;94142.69;5041576;28;20269;-82
2022/03/31 07:03:11;;;;;;;11.57;6.70;;;;;;;8.50;100.00;94134.59;5034395;28;20229;-83
2022/03/31 07:05:38;;;;;;;10.47;6.93;;;;;;;8.56;100.00;94133.50;5045766;28;20285;-83
2022/03/31 07:08:06;;;;;;;14.30;6.63;;;;;;;8.63;100.00;94139.41;5034640;28;20203;-82
2022/03/31 07:10:34;;;;;;;13.13;7.73;;;;;;;8.67;100.00;94137.81;5042559;28;20245;-83
2022/03/31 07:13:01;;;;;;;12.83;7.13;;;;;;;8.72;100.00;94135.91;5046019;28;20222;-82
2022/03/31 07:15:29;;;;;;;12.70;7.40;;;;;;;8.71;100.00;94133.47;5033697;28;20214;-82
2022/03/31 07:18:02;;;;;;;12.57;7.20;;;;;;;8.68;100.00;94134.00;5041570;28;20325;-82
2022/03/31 07:20:30;;;;;;;12.30;7.93;;;;;;;8.64;100.00;94133.78;5037685;28;20203;-82
2022/03/31 07:22:57;;;;;;;12.83;7.97;;;;;;;8.68;100.00;94131.31;5044275;28;20256;-82
2022/03/31 07:25:25;;;;;;;13.50;8.47;;;;;;;8.69;100.00;94127.56;5038516;28;20202;-82
2022/03/31 07:27:53;;;;;;;13.77;7.77;;;;;;;8.54;100.00;94119.53;5040091;28;20200;-82
2022/03/31 07:30:22;;;;;;;12.53;7.47;;;;;;;8.57;100.00;94129.75;5043999;28;20217;-82
2022/03/31 07:32:50;;;;;;;13.37;8.70;;;;;;;8.67;100.00;94127.06;5042961;28;20339;-82
2022/03/31 07:35:20;;;;;;;17.13;8.13;;;;;;;8.66;100.00;94120.88;5034493;28;20230;-81
2022/03/31 07:37:47;;;;;;;10.80;7.57;;;;;;;8.70;100.00;94113.84;5037317;28;20203;-81
2022/03/31 07:40:15;;;;;;;13.07;7.40;;;;;;;8.74;100.00;94116.81;5036844;28;20206;-82
2022/03/31 07:42:42;;;;;;;8.93;6.23;;;;;;;8.72;100.00;94111.69;5049208;28;20209;-82
2022/03/31 07:45:11;;;;;;;13.80;8.13;;;;;;;8.77;100.00;94116.25;5039104;28;20213;-82
2022/03/31 07:47:38;;;;;;;13.17;7.73;;;;;;;8.75;100.00;94104.97;5037062;28;20202;-82
2022/03/31 07:50:07;;;;;;;12.27;7.63;;;;;;;8.76;100.00;94117.34;5037895;28;20312;-81
2022/03/31 07:52:35;;;;;;;15.40;8.50;;;;;;;8.80;100.00;94117.59;5054168;28;20202;-82
2022/03/31 07:55:02;;;;;;;11.60;8.20;;;;;;;8.86;100.00;94119.97;5032818;28;20250;-82
2022/03/31 07:57:29;;;;;;;10.93;7.60;;;;;;;8.92;100.00;94108.16;5047843;28;20210;-82
2022/03/31 08:02:14;;;;;;;11.87;7.50;;;;;;;9.09;100.00;94108.63;5021606;27;20292;-81
2022/03/31 08:04:41;;;;;;;14.87;7.90;;;;;;;9.00;100.00;94106.78;4998246;28;20195;-82
2022/03/31 08:07:08;;;;;;;14.63;9.03;;;;;;;8.95;100.00;94104.88;5004163;28;20205;-81
2022/03/31 08:09:36;;;;;;;14.13;8.83;;;;;;;8.96;100.00;94103.81;5076180;28;20203;-82
2022/03/31 08:12:04;;;;;;;15.43;9.73;;;;;;;9.07;100.00;94099.22;5002168;28;20195;-82
2022/03/31 08:14:31;;;;;;;11.03;8.13;;;;;;;9.02;100.00;94091.94;4996783;28;20207;-81
2022/03/31 08:16:59;;;;;;;11.97;7.07;;;;;;;8.92;100.00;94092.00;5001765;28;20210;-81
2022/03/31 08:19:30;;;;;;;11.63;7.27;;;;;;;8.95;100.00;94096.00;5004540;28;20258;-82
2022/03/31 08:21:58;;;;;;;13.33;7.63;;;;;;;9.06;100.00;94084.94;5014072;28;20230;-82
2022/03/31 08:24:25;;;;;;;10.67;6.37;;;;;;;9.16;100.00;94081.41;5069173;28;20263;-85
2022/03/31 08:26:52;;;;;;;12.03;6.40;;;;;;;9.09;100.00;94076.31;5082336;28;20214;-86
2022/03/31 08:29:20;;;;;;;11.07;6.13;;;;;;;9.18;100.00;94073.06;5083966;28;20207;-86
2022/03/31 08:31:47;;;;;;;9.07;6.73;;;;;;;9.25;100.00;94073.56;5079237;28;20223;-85
2022/03/31 08:34:14;;;;;;;11.10;6.20;;;;;;;9.31;100.00;94073.25;5083402;28;20221;-84
2022/03/31 08:36:44;;;;;;;6.47;4.87;;;;;;;9.25;100.00;94073.56;5007724;28;20210;-83
2022/03/31 08:39:12;;;;;;;7.73;5.27;;;;;;;9.19;100.00;94069.25;5095321;28;20215;-84
2022/03/31 08:41:39;;;;;;;9.60;5.50;;;;;;;9.08;100.00;94063.94;5080787;28;20216;-84
2022/03/31 08:44:08;;;;;;;8.40;4.53;;;;;;;9.10;100.00;94064.44;5075500;28;20208;-84
2022/03/31 08:46:36;;;;;;;8.20;5.03;;;;;;;9.23;100.00;94060.38;5008929;28;20196;-84
2022/03/31 08:49:04;;;;;;;9.47;4.53;;;;;;;9.30;100.00;94054.66;5088844;28;20205;-84
2022/03/31 08:51:31;;;;;;;12.90;4.97;;;;;;;9.43;100.00;94059.44;5092809;28;20348;-84
2022/03/31 08:54:00;;;;;;;7.00;4.53;;;;;;;9.54;100.00;94062.88;5088303;28;20229;-85
2022/03/31 08:56:40;;;;;;;8.33;4.57;;;;;;;9.69;100.00;94063.59;5075529;28;20211;-85
2022/03/31 08:59:08;;;;;;;10.50;4.23;;;;;;;9.90;100.00;94058.84;5083926;28;20302;-85
2022/03/31 09:01:35;;;;;;;5.40;4.10;;;;;;;10.04;100.00;94059.00;5075995;28;20242;-84
2022/03/31 09:04:02;;;;;;;6.30;3.93;;;;;;;10.08;100.00;94057.34;5083338;28;20698;-84
2022/03/31 09:06:29;;;;;;;7.00;4.37;;;;;;;10.22;100.00;94061.03;5090091;28;20209;-85
2022/03/31 09:09:02;;;;;;;7.17;4.23;;;;;;;10.31;100.00;94051.25;5083316;28;20296;-84
2022/03/31 09:11:30;;;;;;;8.60;4.63;;;;;;;10.52;100.00;94035.66;5107685;27;20192;-85
2022/03/31 09:13:58;;;;;;;8.03;4.20;;;;;;;10.57;100.00;94047.22;5061372;28;20302;-84
2022/03/31 09:16:34;;;;;;;9.13;4.07;;;;;;;10.75;100.00;94039.47;5065642;28;20278;-84
2022/03/31 09:19:03;;;;;;;8.33;4.00;;;;;;;10.94;100.00;94038.44;5067178;28;20219;-84
2022/03/31 09:21:31;;;;;;;6.27;3.87;;;;;;;11.13;100.00;94032.28;5063957;28;20236;-85
2022/03/31 09:24:01;;;;;;;7.30;4.23;;;;;;;11.38;100.00;94026.53;5073619;28;20236;-84
2022/03/31 09:26:31;;;;;;;6.00;3.73;;;;;;;11.52;100.00;94024.69;5094160;27;20210;-85
2022/03/31 09:29:15;;;;;;;4.53;3.40;;;;;;;11.94;100.00;94010.28;5084823;27;20223;-85
2022/03/31 09:31:42;;;;;;;7.63;3.50;;;;;;;12.29;100.00;94024.31;5066295;28;20207;-85
2022/03/31 09:34:10;;;;;;;5.50;2.90;;;;;;;12.59;100.00;94017.56;5082896;28;20199;-84
2022/03/31 09:36:39;;;;;;;7.43;3.00;;;;;;;12.98;100.00;94019.78;5071775;28;20216;-85
2022/03/31 09:39:13;;;;;;;6.93;3.40;;;;;;;13.36;98.02;94012.22;5084195;28;20249;-85
2022/03/31 09:41:42;;;;;;;4.97;2.70;;;;;;;13.50;92.14;94016.53;5066961;28;20320;-86
2022/03/31 09:44:15;;;;;;;3.70;2.77;;;;;;;13.50;87.52;94013.03;5059129;28;20196;-85
2022/03/31 09:46:43;;;;;;;5.63;2.40;;;;;;;13.41;84.93;93999.38;5066302;28;20257;-85
2022/03/31 09:49:13;;;;;;;6.80;2.50;;;;;;;13.21;86.71;93999.81;5085770;28;20207;-85
2022/03/31 09:51:41;;;;;;;8.33;2.93;;;;;;;12.77;91.10;93993.09;5062324;28;20222;-86
2022/03/31 09:54:11;;;;;;;7.50;3.40;;;;;;;13.10;97.05;94003.84;5070323;28;20290;-87
2022/03/31 09:56:40;;;;;;;9.77;3.10;;;;;;;13.35;92.68;93994.41;5059148;28;20208;-85
2022/03/31 09:59:09;;;;;;;12.80;2.60;;;;;;;13.38;86.68;93993.75;5083406;28;20199;-85
2022/03/31 10:01:43;;;;;;;7.63;3.57;;;;;;;13.55;88.31;93991.22;5069704;28;20289;-86
2022/03/31 10:04:15;;;;;;;15.30;3.33;;;;;;;13.94;87.43;93991.38;5069122;28;20223;-86
2022/03/31 10:06:43;;;;;;;7.97;3.47;;;;;;;14.22;84.01;93992.03;5063714;28;20213;-85
2022/03/31 10:09:13;;;;;;;8.33;3.20;;;;;;;14.30;85.16;93988.56;5081816;28;20286;-81
2022/03/31 10:11:42;;;;;;;10.07;4.10;;;;;;;14.49;82.90;93984.88;5069271;28;20208;-80
2022/03/31 10:14:20;;;;;;;9.83;3.77;;;;;;;14.42;83.83;93979.09;4998972;28;20260;-81
2022/03/31 10:16:53;;;;;;;7.23;3.93;;;;;;;14.66;82.93;93974.91;5065854;28;20277;-80
2022/03/31 10:19:28;;;;;;;8.03;4.17;;;;;;;14.88;84.79;93975.94;5068451;28;20300;-80
2022/03/31 10:22:00;;;;;;;10.27;4.47;;;;;;;14.80;82.70;93972.06;5086292;28;20255;-80
2022/03/31 10:24:45;;;;;;;7.97;4.00;;;;;;;14.78;80.60;93977.03;5070126;28;20228;-80
2022/03/31 10:27:16;;;;;;;7.63;3.70;;;;;;;14.90;80.50;93965.53;5068508;28;20204;-81
2022/03/31 10:29:45;;;;;;;7.57;3.60;;;;;;;15.05;85.11;93949.63;5071634;28;20218;-81
2022/03/31 10:32:21;;;;;;;5.73;3.47;;;;;;;15.11;81.50;93955.72;5072779;28;20239;-81
2022/03/31 10:34:50;;;;;;;7.13;3.60;;;;;;;15.40;79.40;93950.47;5079741;28;20302;-79
2022/03/31 10:37:31;;;;;;;8.37;3.33;;;;;;;15.36;78.69;93946.00;5064617;28;20332;-79
2022/03/31 10:40:00;;;;;;;12.37;3.67;;;;;;;15.48;75.43;93944.22;5069430;28;20215;-79
2022/03/31 10:42:27;;;;;;;11.13;3.77;;;;;;;15.54;75.90;93938.69;5063337;28;20228;-79
2022/03/31 10:45:13;;;;;;;12.57;3.93;;;;;;;15.14;76.71;93936.84;5000524;28;20208;-78
2022/03/31 10:47:42;;;;;;;6.90;3.70;;;;;;;14.81;79.25;93932.91;5080790;28;20227;-78
2022/03/31 10:50:22;;;;;;;12.57;4.10;;;;;;;14.46;81.42;93923.06;5078561;28;20226;-80
2022/03/31 10:52:59;;;;;;;8.00;3.90;;;;;;;14.28;82.09;93927.59;5078711;28;20243;-83
2022/03/31 10:55:40;;;;;;;9.67;3.60;;;;;;;14.14;84.10;93926.84;5067984;28;20252;-83
2022/03/31 10:58:08;;;;;;;8.90;4.07;;;;;;;13.98;84.19;93910.16;5061513;28;20226;-83
2022/03/31 11:00:36;;;;;;;12.73;3.70;;;;;;;14.25;84.25;93915.44;4994819;28;20234;-84
2022/03/31 11:03:03;;;;;;;13.57;4.00;;;;;;;14.67;82.64;93905.09;5071477;28;20222;-84
2022/03/31 11:05:32;;;;;;;8.90;3.73;;;;;;;14.77;80.34;93904.81;5072835;28;20202;-84
2022/03/31 11:08:04;;;;;;;9.70;4.33;;;;;;;14.54;78.96;93906.00;5068151;28;20295;-83
2022/03/31 11:10:42;;;;;;;10.37;4.20;;;;;;;14.21;79.77;93903.59;5068151;28;20303;-83
2022/03/31 11:13:10;;;;;;;10.20;3.80;;;;;;;13.93;81.05;93902.19;5073197;28;20306;-83
2022/03/31 11:15:37;;;;;;;6.13;3.87;;;;;;;13.74;82.18;93901.56;5001760;28;20204;-83
2022/03/31 11:18:04;;;;;;;6.43;4.17;;;;;;;13.64;81.77;93905.31;5082092;28;20239;-83
2022/03/31 11:20:32;;;;;;;8.47;4.13;;;;;;;13.67;82.30;93909.34;5069420;28;20218;-83
2022/03/31 11:23:03;;;;;;;9.87;4.60;;;;;;;13.66;82.15;93903.13;5059902;28;20227;-83
2022/03/31 11:25:31;;;;;;;10.47;4.37;;;;;;;13.77;81.73;93909.09;4995972;28;20214;-83
2022/03/31 11:28:08;;;;;;;9.40;4.10;;;;;;;13.79;81.00;93901.44;5066914;28;20228;-83
2022/03/31 11:30:35;;;;;;;10.10;4.23;;;;;;;13.72;81.14;93901.06;5060373;28;20207;-83
2022/03/31 11:33:03;;;;;;;9.47;4.40;;;;;;;13.58;81.93;93901.94;5001097;28;20212;-83
2022/03/31 11:35:31;;;;;;;17.33;4.83;;;;;;;13.68;84.22;93897.38;5072339;28;20258;-83
2022/03/31 11:38:01;;;;;;;9.40;4.10;;;;;;;13.79;80.09;93898.72;5069988;28;20220;-83
2022/03/31 11:40:32;;;;;;;14.43;4.53;;;;;;;13.59;81.56;93895.41;5067329;28;20237;-83
2022/03/31 11:43:07;;;;;;;12.90;4.33;;;;;;;13.60;82.25;93897.03;5063385;28;20238;-83
2022/03/31 11:45:37;;;;;;;14.77;4.03;;;;;;;13.60;81.46;93891.59;5064203;28;20210;-83
2022/03/31 11:48:06;;;;;;;16.30;4.07;;;;;;;13.54;83.86;93892.81;5064804;28;20212;-83